createdAt,value
2023-05-21T00:01:26.138Z,101149.41
2023-05-21T00:06:29.753Z,101145.38
2023-05-21T00:11:33.745Z,101136.47
2023-05-21T00:16:38.714Z,101139.53
2023-05-21T00:21:42.171Z,101128.22
2023-05-21T00:26:45.833Z,101123.63
2023-05-21T00:31:52.201Z,101123.16
2023-05-21T00:36:55.782Z,101115.19
2023-05-21T00:42:00.592Z,101109.59
2023-05-21T00:47:06.497Z,101103.19
2023-05-21T00:52:10.081Z,101099.97
2023-05-21T00:57:13.786Z,101101.25
2023-05-21T01:02:19.865Z,101097.59
2023-05-21T01:07:23.420Z,101101.31
2023-05-21T01:12:27.096Z,101090.63
2023-05-21T01:17:34.159Z,101096.47
2023-05-21T01:22:39.774Z,101092.63
2023-05-21T01:27:45.270Z,101096.34
2023-05-21T01:32:50.782Z,101095.69
2023-05-21T01:37:58.304Z,101095.34
2023-05-21T01:43:05.036Z,101085.97
2023-05-21T01:48:08.890Z,101078.31
2023-05-21T01:53:13.026Z,101088.25
2023-05-21T01:58:18.385Z,101083.25
2023-05-21T02:03:23.029Z,101090.00
2023-05-21T02:08:27.305Z,101094.78
2023-05-21T02:13:33.232Z,101090.06
2023-05-21T02:18:37.253Z,101085.91
2023-05-21T02:23:42.044Z,101083.31
2023-05-21T02:28:46.900Z,101086.66
2023-05-21T02:33:50.521Z,101077.09
2023-05-21T02:38:54.642Z,101075.03
2023-05-21T02:43:59.556Z,101074.44
2023-05-21T02:49:03.304Z,101071.69
2023-05-21T02:54:07.127Z,101062.97
2023-05-21T02:59:13.189Z,101068.03
2023-05-21T03:04:17.177Z,101064.16
2023-05-21T03:09:21.605Z,101076.94
2023-05-21T03:14:26.516Z,101059.13
2023-05-21T03:19:30.640Z,101067.91
2023-05-21T03:24:35.318Z,101057.22
2023-05-21T03:29:40.551Z,101047.38
2023-05-21T03:34:45.459Z,101044.81
2023-05-21T03:39:55.080Z,101048.78
2023-05-21T03:45:00.166Z,101056.31
2023-05-21T03:50:23.595Z,101053.69
2023-05-21T03:55:27.202Z,101048.81
2023-05-21T04:00:34.544Z,101048.88
2023-05-21T04:05:38.424Z,101051.66
2023-05-21T04:10:42.102Z,101053.78
2023-05-21T04:15:47.488Z,101062.38
2023-05-21T04:20:51.003Z,101061.25
2023-05-21T04:25:54.598Z,101065.09
2023-05-21T04:31:00.341Z,101059.75
2023-05-21T04:36:04.325Z,101053.38
2023-05-21T04:41:10.780Z,101060.59
2023-05-21T04:46:16.025Z,101053.25
2023-05-21T04:51:20.000Z,101054.25
2023-05-21T04:56:23.489Z,101050.91
2023-05-21T05:01:29.488Z,101050.69
2023-05-21T05:06:33.174Z,101053.22
2023-05-21T05:11:36.719Z,101054.00
2023-05-21T05:16:42.920Z,101051.59
2023-05-21T05:21:46.666Z,101040.88
2023-05-21T05:26:50.869Z,101045.28
2023-05-21T05:31:55.910Z,101036.38
2023-05-21T05:36:59.557Z,101041.00
2023-05-21T05:42:03.284Z,101032.84
2023-05-21T05:47:10.830Z,101039.03
2023-05-21T05:52:15.890Z,101042.09
2023-05-21T05:57:20.197Z,101037.59
2023-05-21T06:02:28.091Z,101043.59
2023-05-21T06:07:31.983Z,101036.38
2023-05-21T06:12:35.745Z,101043.75
2023-05-21T06:17:40.643Z,101039.41
2023-05-21T06:22:44.236Z,101040.63
2023-05-21T06:27:47.946Z,101029.88
2023-05-21T06:32:58.531Z,101029.44
2023-05-21T06:38:02.444Z,101038.59
2023-05-21T06:43:06.047Z,101033.53
2023-05-21T06:48:30.303Z,101030.06
2023-05-21T06:53:34.812Z,101026.03
2023-05-21T06:58:38.341Z,101025.63
2023-05-21T07:03:43.273Z,101023.72
2023-05-21T07:08:48.030Z,101022.66
2023-05-21T07:13:51.586Z,101020.69
2023-05-21T07:18:57.058Z,101014.97
2023-05-21T07:24:00.893Z,101006.63
2023-05-21T07:29:04.877Z,101006.53
2023-05-21T07:34:10.070Z,101007.00
2023-05-21T07:39:13.749Z,101004.78
2023-05-21T07:44:19.101Z,101000.06
2023-05-21T07:49:25.884Z,101011.63
2023-05-21T07:54:29.464Z,101003.63
2023-05-21T07:59:34.098Z,101001.84
2023-05-21T08:04:40.910Z,100997.56
2023-05-21T08:09:45.568Z,100985.16
2023-05-21T08:14:49.637Z,100988.25
2023-05-21T08:19:55.025Z,100990.94
2023-05-21T08:24:58.715Z,100988.16
2023-05-21T08:30:02.301Z,100990.16
2023-05-21T08:35:08.784Z,100993.78
2023-05-21T08:40:24.019Z,100987.22
2023-05-21T08:45:28.238Z,100986.88
2023-05-21T08:50:34.136Z,100984.50
2023-05-21T08:55:44.553Z,100976.56
2023-05-21T09:00:48.076Z,100973.91
2023-05-21T09:05:53.349Z,100981.03
2023-05-21T09:10:56.993Z,100979.72
2023-05-21T09:16:07.589Z,100987.69
2023-05-21T09:21:29.102Z,100989.09
2023-05-21T09:26:36.818Z,100985.38
2023-05-21T09:31:45.025Z,100982.72
2023-05-21T09:36:52.355Z,100983.88
2023-05-21T09:41:57.888Z,100980.28
2023-05-21T09:47:03.462Z,100989.66
2023-05-21T09:52:08.571Z,100988.59
2023-05-21T09:57:12.051Z,100978.19
2023-05-21T10:02:20.952Z,100982.94
2023-05-21T10:07:27.270Z,100976.38
2023-05-21T10:12:32.360Z,100968.09
2023-05-21T10:17:36.044Z,100967.41
2023-05-21T10:22:41.362Z,100967.03
2023-05-21T10:27:45.556Z,100955.59
2023-05-21T10:32:49.779Z,100945.41
2023-05-21T10:37:55.541Z,100941.59
2023-05-21T10:43:41.477Z,100943.16
2023-05-21T10:48:58.705Z,100927.97
2023-05-21T10:54:29.259Z,100924.16
2023-05-21T10:59:38.848Z,100913.84
2023-05-21T11:04:44.283Z,100918.66
2023-05-21T11:09:51.153Z,100906.13
2023-05-21T11:14:58.256Z,100898.78
2023-05-21T11:20:05.681Z,100892.81
2023-05-21T11:25:12.500Z,100895.09
2023-05-21T11:30:17.056Z,100896.47
2023-05-21T11:35:23.556Z,100882.75
2023-05-21T11:40:30.558Z,100880.56
2023-05-21T11:45:34.131Z,100875.28
2023-05-21T11:50:37.981Z,100874.03
2023-05-21T11:55:47.279Z,100870.00
2023-05-21T12:00:52.034Z,100865.81
2023-05-21T12:05:55.897Z,100869.03
2023-05-21T12:11:01.741Z,100864.69
2023-05-21T12:16:07.152Z,100860.88
2023-05-21T12:21:12.384Z,100864.97
2023-05-21T12:26:17.888Z,100860.16
2023-05-21T12:31:21.884Z,100857.31
2023-05-21T12:36:28.214Z,100864.44
2023-05-21T12:41:33.075Z,100864.38
2023-05-21T12:46:37.420Z,100864.69
2023-05-21T12:51:41.233Z,100857.72
2023-05-21T12:56:49.198Z,100866.91
2023-05-21T13:01:54.084Z,100856.94
2023-05-21T13:06:57.736Z,100849.63
2023-05-21T13:12:02.645Z,100852.81
2023-05-21T13:17:06.208Z,100847.09
2023-05-21T13:22:10.303Z,100839.69
2023-05-21T13:27:15.206Z,100838.59
2023-05-21T13:32:19.405Z,100833.44
2023-05-21T13:37:22.896Z,100821.19
2023-05-21T13:42:28.130Z,100820.00
2023-05-21T13:47:31.778Z,100817.84
2023-05-21T13:52:35.398Z,100815.56
2023-05-21T13:57:40.694Z,100805.72
2023-05-21T14:02:45.425Z,100807.38
2023-05-21T14:07:49.380Z,100808.63
2023-05-21T14:12:59.194Z,100810.44
2023-05-21T14:18:12.086Z,100798.91
2023-05-21T14:23:16.093Z,100800.06
2023-05-21T14:28:21.077Z,100794.44
2023-05-21T14:33:24.682Z,100788.75
2023-05-21T14:38:28.761Z,100788.47
2023-05-21T14:43:33.879Z,100792.91
2023-05-21T14:48:37.515Z,100798.69
2023-05-21T14:53:41.173Z,100792.91
2023-05-21T14:58:46.051Z,100795.53
2023-05-21T15:03:52.227Z,100789.94
2023-05-21T15:08:55.950Z,100784.00
2023-05-21T15:14:00.986Z,100777.72
2023-05-21T15:19:04.778Z,100778.66
2023-05-21T15:24:08.304Z,100778.31
2023-05-21T15:29:13.541Z,100773.63
2023-05-21T15:34:17.982Z,100762.44
2023-05-21T15:39:21.839Z,100767.56
2023-05-21T15:44:27.382Z,100770.97
2023-05-21T15:49:30.964Z,100762.31
2023-05-21T15:54:34.548Z,100759.94
2023-05-21T15:59:39.469Z,100759.81
2023-05-21T16:04:43.347Z,100751.69
2023-05-21T16:09:47.168Z,100750.38
2023-05-21T16:14:52.943Z,100743.81
2023-05-21T16:19:56.734Z,100738.03
2023-05-21T16:25:00.403Z,100740.94
2023-05-21T16:30:07.387Z,100731.13
2023-05-21T16:35:13.395Z,100739.75
2023-05-21T16:40:17.057Z,100738.50
2023-05-21T16:45:22.124Z,100738.22
2023-05-21T16:50:25.811Z,100739.91
2023-05-21T16:55:29.386Z,100735.50
2023-05-21T17:00:35.016Z,100737.38
2023-05-21T17:05:38.786Z,100734.88
2023-05-21T17:10:42.606Z,100728.44
2023-05-21T17:15:47.640Z,100741.09
2023-05-21T17:20:51.329Z,100730.66
2023-05-21T17:25:54.946Z,100734.56
2023-05-21T17:30:59.846Z,100729.16
2023-05-21T17:36:03.545Z,100735.47
2023-05-21T17:41:07.095Z,100728.19
2023-05-21T17:46:16.588Z,100730.13
2023-05-21T17:51:20.195Z,100725.69
2023-05-21T17:56:23.804Z,100722.94
2023-05-21T18:01:29.091Z,100731.59
2023-05-21T18:06:32.962Z,100733.47
2023-05-21T18:11:36.552Z,100736.25
2023-05-21T18:16:44.112Z,100743.13
2023-05-21T18:21:48.706Z,100739.59
2023-05-21T18:26:52.321Z,100744.66
2023-05-21T18:31:57.304Z,100740.34
2023-05-21T18:37:00.821Z,100746.19
2023-05-21T18:42:12.689Z,100748.66
2023-05-21T18:47:19.162Z,100738.69
2023-05-21T18:52:22.691Z,100748.22
2023-05-21T18:57:26.248Z,100748.19
2023-05-21T19:02:31.319Z,100752.34
2023-05-21T19:07:35.089Z,100756.66
2023-05-21T19:12:39.516Z,100753.75
2023-05-21T19:17:44.690Z,100761.13
2023-05-21T19:22:48.294Z,100763.31
2023-05-21T19:27:52.824Z,100762.59
2023-05-21T19:32:57.830Z,100768.25
2023-05-21T19:38:04.190Z,100780.25
2023-05-21T19:43:08.776Z,100786.16
2023-05-21T19:48:13.792Z,100781.47
2023-05-21T19:53:17.512Z,100784.69
2023-05-21T19:58:23.657Z,100788.72
2023-05-21T20:03:35.319Z,100780.25
2023-05-21T20:08:38.874Z,100788.72
2023-05-21T20:13:42.594Z,100789.34
2023-05-21T20:18:47.979Z,100794.22
2023-05-21T20:23:51.768Z,100785.66
2023-05-21T20:28:55.505Z,100790.44
2023-05-21T20:34:00.792Z,100785.88
2023-05-21T20:39:07.948Z,100793.34
2023-05-21T20:44:11.960Z,100796.53
2023-05-21T20:49:17.801Z,100804.84
2023-05-21T20:54:22.277Z,100798.22
2023-05-21T20:59:27.541Z,100808.19
2023-05-21T21:04:33.510Z,100806.53
2023-05-21T21:09:37.734Z,100807.81
2023-05-21T21:14:41.665Z,100809.09
2023-05-21T21:19:46.931Z,100796.97
2023-05-21T21:24:50.663Z,100797.16
2023-05-21T21:29:54.517Z,100793.81
2023-05-21T21:34:59.417Z,100807.00
2023-05-21T21:40:03.370Z,100807.41
2023-05-21T21:45:08.421Z,100811.53
2023-05-21T21:50:13.726Z,100806.28
2023-05-21T21:55:18.924Z,100800.25
2023-05-21T22:00:26.392Z,100799.22
2023-05-21T22:05:32.620Z,100802.91
2023-05-21T22:10:38.333Z,100810.66
2023-05-21T22:15:42.163Z,100803.13
2023-05-21T22:20:47.129Z,100792.06
2023-05-21T22:25:50.823Z,100788.25
2023-05-21T22:30:54.410Z,100781.63
2023-05-21T22:35:59.378Z,100780.31
2023-05-21T22:41:03.577Z,100787.63
2023-05-21T22:46:07.401Z,100782.16
2023-05-21T22:51:12.411Z,100786.44
2023-05-21T22:56:16.010Z,100787.41
2023-05-21T23:01:19.561Z,100784.03
2023-05-21T23:06:24.547Z,100785.66
2023-05-21T23:11:28.259Z,100791.66
2023-05-21T23:16:32.165Z,100799.50
2023-05-21T23:21:37.441Z,100794.44
2023-05-21T23:26:41.011Z,100797.69
2023-05-21T23:31:46.659Z,100804.09
2023-05-21T23:36:51.804Z,100796.75
2023-05-21T23:41:55.602Z,100794.00
2023-05-21T23:46:59.127Z,100789.97
2023-05-21T23:52:04.272Z,100790.66
2023-05-21T23:57:07.809Z,100792.13
